Impacts METAR Board
IDs:

KATL - Atlanta/Hartsfield-J, GA, US

Updated at: 1700 UTC 26 Apr 2018
Potential Impact None Slight Moderate High
Time 26/05Z 26/06Z 26/07Z 26/08Z 26/09Z 26/10Z 26/11Z 26/12Z 26/13Z 26/14Z 26/15Z 26/16Z 26/17Z
Temp55 54 52 52 52 51 52 53 57 55 58 60 60
Dewpt51 50 50 50 50 49 50 50 52 52 53 53 53
Altim29.92 29.90 29.87 29.86 29.86 29.85 29.85 29.87 29.89 29.93 29.91 29.90 29.88
VIS10 10 10 10 10 10 10 10 10 10 10 10 10
CIG-- -- -- 250 200 200 200 200 200 90 95 90 90
CoverCLRFEWSCTBKNBKNBKNBKNBKNBKNBKNBKNOVCOVC
FltCatVFRVFRVFRVFRVFRVFRVFRVFRVFRVFRVFRVFRVFR
WX-------------------RA---RA-RA
WDir30030029029029002900290290320320330
WSpd5 4 4 6 5 0 4 0 5 8 9 3 5
WGst-- -- -- -- -- -- -- -- -- -- -- -- --
Raw hourly METARs
KATL 260452Z 30005KT 10SM CLR 13/11 A2992 RMK AO2 SLP130 T01280106 402000122
KATL 260552Z 30004KT 10SM FEW100 12/10 A2990 RMK AO2 SLP121 T01220100 10183 20117 58006
KATL 260652Z 29004KT 10SM FEW100 SCT250 11/10 A2987 RMK AO2 SLP110 T01110100
KATL 260752Z 29006KT 10SM FEW100 SCT200 BKN250 11/10 A2986 RMK AO2 SLP108 T01110100
KATL 260852Z 29005KT 10SM FEW100 BKN200 BKN250 11/10 A2986 RMK AO2 SLP108 T01110100 56013
KATL 260952Z 00000KT 10SM FEW075 SCT140 BKN200 BKN250 11/09 A2985 RMK AO2 SLP104 T01060094
KATL 261052Z 29004KT 10SM FEW075 SCT150 BKN200 BKN250 11/10 A2985 RMK AO2 SLP107 T01110100
KATL 261152Z 00000KT 10SM FEW080 SCT150 BKN200 BKN250 12/10 A2987 RMK AO2 SLP110 ACC NW-N T01170100 10122 20106 53003
KATL 261252Z 29005KT 10SM FEW075 SCT110 BKN200 BKN250 14/11 A2989 RMK AO2 SLP120 ACC SW-NW T01390111
KATL 261352Z 29008KT 10SM -RA FEW060 BKN090 BKN110 BKN250 13/11 A2993 RMK AO2 RAB50 SLP131 VIRGA SW-NW P0000 T01280111
KATL 261452Z 32009KT 10SM FEW005 SCT065 BKN095 BKN250 14/12 A2991 RMK AO2 RAE23 SLP127 FU FEW005 ACC SE-SW P0000 60000 T01440117 50016
KATL 261552Z 32003KT 10SM -RA FEW015 SCT060 BKN090 OVC250 16/12 A2990 RMK AO2 RAB49 SLP123 P0000 T01560117
KATL 261652Z 33005KT 10SM -RA FEW015 SCT060 OVC090 16/12 A2988 RMK AO2 RAE1556B26 SLP117 VIS LWR SW-NW SHRA P0000 T01560117



Page loaded:  17:21 UTC  |   10:21 AM Pacific  |   11:21 AM Mountain  |   12:21 PM Central  |   01:21 PM Eastern

 

ADVISORIES

FORECASTS

FORECASTS

OBSERVATIONS

USER TOOLS

ABOUT US